Observation data for Brownfield on 08/15/2019      Previous  Date       Current Mesonet Observations  Soil Data  Daily Summary Page  Observations in Plain Language
KBWS 150500Z 13005KT 26/15 A3016 RMK A01 T02580147  RH  053%=      5-min Rain = 0
KBWS 150505Z 13005KT 26/15 A3017 RMK A01 T02570147  RH  053%=      5-min Rain = 0
KBWS 150510Z 13005KT 26/15 A3017 RMK A01 T02550148  RH  054%=      5-min Rain = 0
KBWS 150515Z 13005KT 25/15 A3017 RMK A01 T02540148  RH  054%=      5-min Rain = 0
KBWS 150520Z 14005KT 25/15 A3017 RMK A01 T02530148  RH  055%=      5-min Rain = 0
KBWS 150525Z 13005KT 25/15 A3017 RMK A01 T02520148  RH  055%=      5-min Rain = 0
KBWS 150530Z 14006KT 25/15 A3017 RMK A01 T02510148  RH  055%=      5-min Rain = 0
KBWS 150535Z 14006KT 25/15 A3017 RMK A01 T02500147  RH  055%=      5-min Rain = 0
KBWS 150540Z 14006KT 25/15 A3017 RMK A01 T02490148  RH  056%=      5-min Rain = 0
KBWS 150545Z 13006KT 25/15 A3017 RMK A01 T02490148  RH  056%=      5-min Rain = 0
KBWS 150550Z 13006KT 25/15 A3017 RMK A01 T02480148  RH  056%=      5-min Rain = 0
KBWS 150555Z 13006KT 25/15 A3017 RMK A01 T02490148  RH  056%=      5-min Rain = 0
KBWS 150600Z 16007KT 25/15 A3018 RMK A01 T02490148  RH  056%=      5-min Rain = 0
KBWS 150605Z 16008KT 25/15 A3018 RMK A01 T02470145  RH  055%=      5-min Rain = 0
KBWS 150610Z 13008KT 25/15 A3017 RMK A01 T02520148  RH  055%=      5-min Rain = 0
KBWS 150615Z 15009KT 26/15 A3018 RMK A01 T02550148  RH  054%=      5-min Rain = 0
KBWS 150620Z 16007KT 25/15 A3018 RMK A01 T02530147  RH  054%=      5-min Rain = 0
KBWS 150625Z 17007KT 25/15 A3018 RMK A01 T02510147  RH  055%=      5-min Rain = 0
KBWS 150630Z 14006KT 25/15 A3018 RMK A01 T02510148  RH  055%=      5-min Rain = 0
KBWS 150635Z 17007KT 25/15 A3018 RMK A01 T02500148  RH  055%=      5-min Rain = 0
KBWS 150640Z 16005KT 25/15 A3019 RMK A01 T02490148  RH  056%=      5-min Rain = 0
KBWS 150645Z 16004KT 25/15 A3019 RMK A01 T02500148  RH  056%=      5-min Rain = 0
KBWS 150650Z 18004KT 25/15 A3019 RMK A01 T02480148  RH  056%=      5-min Rain = 0
KBWS 150655Z 17003KT 25/15 A3019 RMK A01 T02480148  RH  056%=      5-min Rain = 0
KBWS 150700Z 17004KT 25/15 A3019 RMK A01 T02480148  RH  056%=      5-min Rain = 0
KBWS 150705Z 19004KT 25/15 A3019 RMK A01 T02490149  RH  056%=      5-min Rain = 0
KBWS 150710Z 19004KT 25/15 A3019 RMK A01 T02480152  RH  058%=      5-min Rain = 0
KBWS 150715Z 19004KT 25/15 A3019 RMK A01 T02460152  RH  058%=      5-min Rain = 0
KBWS 150720Z 20005KT 25/15 A3019 RMK A01 T02460153  RH  059%=      5-min Rain = 0
KBWS 150725Z 19003KT 25/15 A3019 RMK A01 T02470152  RH  058%=      5-min Rain = 0
KBWS 150730Z 19003KT 25/15 A3019 RMK A01 T02490153  RH  058%=      5-min Rain = 0
KBWS 150735Z 18003KT 25/15 A3019 RMK A01 T02490153  RH  058%=      5-min Rain = 0
KBWS 150740Z 17003KT 25/15 A3019 RMK A01 T02500151  RH  057%=      5-min Rain = 0
KBWS 150745Z 17003KT 25/15 A3019 RMK A01 T02490150  RH  056%=      5-min Rain = 0
KBWS 150750Z 19003KT 25/15 A3018 RMK A01 T02480150  RH  057%=      5-min Rain = 0
KBWS 150755Z 20003KT 25/15 A3019 RMK A01 T02470152  RH  058%=      5-min Rain = 0
KBWS 150800Z 20002KT 25/15 A3019 RMK A01 T02460154  RH  059%=      5-min Rain = 0
KBWS 150805Z 22001KT 24/15 A3019 RMK A01 T02440154  RH  060%=      5-min Rain = 0
KBWS 150810Z 26002KT 24/15 A3019 RMK A01 T02420153  RH  060%=      5-min Rain = 0
KBWS 150815Z 27002KT 24/15 A3018 RMK A01 T02400152  RH  061%=      5-min Rain = 0
KBWS 150820Z 27001KT 24/15 A3018 RMK A01 T02400152  RH  061%=      5-min Rain = 0
KBWS 150825Z 24001KT 24/15 A3017 RMK A01 T02390152  RH  061%=      5-min Rain = 0
KBWS 150830Z 21001KT 24/15 A3017 RMK A01 T02390153  RH  061%=      5-min Rain = 0
KBWS 150835Z 22001KT 24/15 A3017 RMK A01 T02430153  RH  060%=      5-min Rain = 0
KBWS 150840Z 25002KT 24/15 A3017 RMK A01 T02440153  RH  060%=      5-min Rain = 0
KBWS 150845Z 29002KT 24/15 A3017 RMK A01 T02400153  RH  061%=      5-min Rain = 0
KBWS 150850Z 30002KT 24/15 A3017 RMK A01 T02360152  RH  062%=      5-min Rain = 0
KBWS 150855Z 31001KT 24/15 A3017 RMK A01 T02360152  RH  062%=      5-min Rain = 0
KBWS 150900Z 33002KT 24/15 A3017 RMK A01 T02390153  RH  061%=      5-min Rain = 0
KBWS 150905Z 34003KT 24/15 A3017 RMK A01 T02430154  RH  060%=      5-min Rain = 0
KBWS 150910Z 35003KT 24/16 A3017 RMK A01 T02440155  RH  060%=      5-min Rain = 0
KBWS 150915Z 02002KT 25/16 A3016 RMK A01 T02450156  RH  060%=      5-min Rain = 0
KBWS 150920Z 03003KT 24/16 A3016 RMK A01 T02430156  RH  061%=      5-min Rain = 0
KBWS 150925Z 04003KT 24/16 A3016 RMK A01 T02420156  RH  061%=      5-min Rain = 0
KBWS 150930Z 06003KT 24/16 A3016 RMK A01 T02420158  RH  062%=      5-min Rain = 0
KBWS 150935Z 07003KT 24/16 A3016 RMK A01 T02420162  RH  064%=      5-min Rain = 0
KBWS 150940Z 09004KT 24/16 A3016 RMK A01 T02410160  RH  063%=      5-min Rain = 0
KBWS 150945Z 09004KT 24/16 A3015 RMK A01 T02380157  RH  063%=      5-min Rain = 0
KBWS 150950Z 09004KT 24/16 A3015 RMK A01 T02370157  RH  064%=      5-min Rain = 0
KBWS 150955Z 10004KT 24/16 A3015 RMK A01 T02360157  RH  064%=      5-min Rain = 0
KBWS 151000Z 10004KT 23/16 A3015 RMK A01 T02340157  RH  065%=      5-min Rain = 0
KBWS 151005Z 09005KT 23/16 A3015 RMK A01 T02340159  RH  065%=      5-min Rain = 0
KBWS 151010Z 07005KT 24/16 A3015 RMK A01 T02370163  RH  066%=      5-min Rain = 0
KBWS 151015Z 06005KT 24/16 A3015 RMK A01 T02350161  RH  066%=      5-min Rain = 0
KBWS 151020Z 06004KT 23/16 A3015 RMK A01 T02310160  RH  068%=      5-min Rain = 0
KBWS 151025Z 06004KT 23/16 A3015 RMK A01 T02310162  RH  068%=      5-min Rain = 0
KBWS 151030Z 06004KT 23/16 A3015 RMK A01 T02330164  RH  068%=      5-min Rain = 0
KBWS 151035Z 06004KT 23/16 A3015 RMK A01 T02330163  RH  068%=      5-min Rain = 0
KBWS 151040Z 07004KT 23/17 A3015 RMK A01 T02340165  RH  068%=      5-min Rain = 0
KBWS 151045Z 07005KT 24/16 A3015 RMK A01 T02360164  RH  067%=      5-min Rain = 0
KBWS 151050Z 07005KT 23/16 A3015 RMK A01 T02330162  RH  067%=      5-min Rain = 0
KBWS 151055Z 07006KT 23/16 A3015 RMK A01 T02330161  RH  067%=      5-min Rain = 0
KBWS 151100Z 07006KT 23/16 A3014 RMK A01 T02320162  RH  068%=      5-min Rain = 0
KBWS 151105Z 06006KT 23/16 A3015 RMK A01 T02330163  RH  068%=      5-min Rain = 0
KBWS 151110Z 07005KT 23/16 A3014 RMK A01 T02330162  RH  068%=      5-min Rain = 0
KBWS 151115Z 07004KT 23/16 A3014 RMK A01 T02320161  RH  067%=      5-min Rain = 0
KBWS 151120Z 07003KT 23/16 A3014 RMK A01 T02300161  RH  068%=      5-min Rain = 0
KBWS 151125Z 06001KT 23/16 A3014 RMK A01 T02300161  RH  068%=      5-min Rain = 0
KBWS 151130Z 06002KT 23/16 A3014 RMK A01 T02280159  RH  068%=      5-min Rain = 0
KBWS 151135Z 07002KT 23/16 A3015 RMK A01 T02290160  RH  068%=      5-min Rain = 0
KBWS 151140Z 07003KT 23/16 A3015 RMK A01 T02280160  RH  069%=      5-min Rain = 0
KBWS 151145Z 05002KT 23/16 A3015 RMK A01 T02260159  RH  069%=      5-min Rain = 0
KBWS 151150Z 05003KT 22/16 A3015 RMK A01 T02240159  RH  070%=      5-min Rain = 0
KBWS 151155Z 05004KT 23/16 A3015 RMK A01 T02250159  RH  070%=      5-min Rain = 0
KBWS 151200Z 05004KT 22/16 A3015 RMK A01 T02240159  RH  070%=      5-min Rain = 0
KBWS 151205Z 05004KT 22/16 A3015 RMK A01 T02240160  RH  071%=      5-min Rain = 0
KBWS 151210Z 08003KT 23/16 A3014 RMK A01 T02260164  RH  071%=      5-min Rain = 0
KBWS 151215Z 08004KT 23/16 A3015 RMK A01 T02260161  RH  070%=      5-min Rain = 0
KBWS 151220Z 07005KT 23/16 A3015 RMK A01 T02250162  RH  071%=      5-min Rain = 0
KBWS 151225Z 05005KT 23/16 A3015 RMK A01 T02260161  RH  070%=      5-min Rain = 0
KBWS 151230Z 06005KT 23/16 A3015 RMK A01 T02250162  RH  071%=      5-min Rain = 0
KBWS 151235Z 08005KT 23/16 A3016 RMK A01 T02260162  RH  070%=      5-min Rain = 0
KBWS 151240Z 08006KT 23/16 A3016 RMK A01 T02260161  RH  070%=      5-min Rain = 0
KBWS 151245Z 07005KT 23/16 A3016 RMK A01 T02270161  RH  069%=      5-min Rain = 0
KBWS 151250Z 06004KT 23/16 A3016 RMK A01 T02300164  RH  070%=      5-min Rain = 0
KBWS 151255Z 06004KT 23/16 A3017 RMK A01 T02320164  RH  069%=      5-min Rain = 0
KBWS 151300Z 06004KT 23/17 A3017 RMK A01 T02330166  RH  069%=      5-min Rain = 0
KBWS 151305Z 07005KT 24/17 A3017 RMK A01 T02370168  RH  069%=      5-min Rain = 0
KBWS 151310Z 07005KT 24/17 A3017 RMK A01 T02400169  RH  068%=      5-min Rain = 0
KBWS 151315Z 06006KT 24/17 A3017 RMK A01 T02420169  RH  067%=      5-min Rain = 0
KBWS 151320Z 07005KT 24/17 A3017 RMK A01 T02440171  RH  067%=      5-min Rain = 0
KBWS 151325Z 07005KT 25/17 A3017 RMK A01 T02470171  RH  066%=      5-min Rain = 0
KBWS 151330Z 08006KT 25/17 A3017 RMK A01 T02510170  RH  064%=      5-min Rain = 0
KBWS 151335Z 09006KT 25/17 A3017 RMK A01 T02530172  RH  064%=      5-min Rain = 0
KBWS 151340Z 09006KT 25/17 A3017 RMK A01 T02540173  RH  064%=      5-min Rain = 0
KBWS 151345Z 09006KT 26/17 A3017 RMK A01 T02550174  RH  064%=      5-min Rain = 0
KBWS 151350Z 08005KT 26/18 A3017 RMK A01 T02560175  RH  064%=      5-min Rain = 0
KBWS 151355Z 08005KT 26/18 A3017 RMK A01 T02590176  RH  063%=      5-min Rain = 0
KBWS 151400Z 08006KT 26/18 A3017 RMK A01 T02610177  RH  063%=      5-min Rain = 0
KBWS 151405Z 08006KT 26/18 A3017 RMK A01 T02630178  RH  063%=      5-min Rain = 0
KBWS 151410Z 08006KT 27/18 A3017 RMK A01 T02660179  RH  062%=      5-min Rain = 0
KBWS 151415Z 08006KT 27/18 A3017 RMK A01 T02680179  RH  061%=      5-min Rain = 0
KBWS 151420Z 08006KT 27/18 A3017 RMK A01 T02710179  RH  061%=      5-min Rain = 0
KBWS 151425Z 09006KT 27/18 A3017 RMK A01 T02740180  RH  060%=      5-min Rain = 0
KBWS 151430Z 08006KT 27/18 A3017 RMK A01 T02740181  RH  060%=      5-min Rain = 0
KBWS 151435Z 08005KT 28/18 A3017 RMK A01 T02760181  RH  059%=      5-min Rain = 0
KBWS 151440Z 09004KT 28/18 A3017 RMK A01 T02810182  RH  058%=      5-min Rain = 0
KBWS 151445Z 07004KT 28/18 A3017 RMK A01 T02820182  RH  058%=      5-min Rain = 0
KBWS 151450Z 06004KT 29/18 A3017 RMK A01 T02860182  RH  056%=      5-min Rain = 0
KBWS 151455Z 04003KT 29/18 A3018 RMK A01 T02900182  RH  055%=      5-min Rain = 0
KBWS 151500Z 05003KT 29/18 A3018 RMK A01 T02900182  RH  055%=      5-min Rain = 0
KBWS 151505Z 04001KT 29/18 A3018 RMK A01 T02930181  RH  054%=      5-min Rain = 0
KBWS 151510Z 03001KT 30/18 A3018 RMK A01 T03010181  RH  051%=      5-min Rain = 0
KBWS 151515Z 36002KT 30/18 A3018 RMK A01 T02990180  RH  052%=      5-min Rain = 0
KBWS 151520Z 34002KT 30/18 A3018 RMK A01 T03020181  RH  051%=      5-min Rain = 0
KBWS 151525Z 01003KT 30/18 A3018 RMK A01 T03000181  RH  052%=      5-min Rain = 0
KBWS 151530Z 32003KT 30/18 A3018 RMK A01 T03000175  RH  050%=      5-min Rain = 0
KBWS 151535Z 29003KT 30/18 A3018 RMK A01 T03010177  RH  050%=      5-min Rain = 0
KBWS 151540Z 33003KT 30/18 A3018 RMK A01 T03030176  RH  049%=      5-min Rain = 0
KBWS 151545Z 03003KT 31/17 A3018 RMK A01 T03050169  RH  046%=      5-min Rain = 0
KBWS 151550Z 02001KT 31/17 A3018 RMK A01 T03090169  RH  045%=      5-min Rain = 0
KBWS 151555Z 00003KT 31/17 A3018 RMK A01 T03120173  RH  046%=      5-min Rain = 0
KBWS 151605Z 20002KT 31/17 A3018 RMK A01 T03140172  RH  045%=      5-min Rain = 0
KBWS 151610Z 01002KT 32/17 A3018 RMK A01 T03200173  RH  044%=      5-min Rain = 0
KBWS 151615Z 01003KT 32/17 A3017 RMK A01 T03160173  RH  044%=      5-min Rain = 0
KBWS 151620Z 12003KT 32/17 A3017 RMK A01 T03190172  RH  044%=      5-min Rain = 0
KBWS 151625Z 08003KT 33/17 A3017 RMK A01 T03250170  RH  042%=      5-min Rain = 0
KBWS 151630Z 05002KT 33/17 A3017 RMK A01 T03260169  RH  041%=      5-min Rain = 0
KBWS 151635Z 04003KT 32/17 A3017 RMK A01 T03240170  RH  042%=      5-min Rain = 0
KBWS 151640Z 02004KT 32/17 A3017 RMK A01 T03230170  RH  042%=      5-min Rain = 0
KBWS 151645Z 04003KT 32/17 A3017 RMK A01 T03240169  RH  042%=      5-min Rain = 0
KBWS 151650Z 02004G9KT 33/17 A3017 RMK A01 T03250167  RH  041%=      5-min Rain = 0
KBWS 151655Z 02004KT 32/17 A3017 RMK A01 T03240165  RH  040%=      5-min Rain = 0
KBWS 151700Z 34004KT 32/17 A3016 RMK A01 T03220166  RH  041%=      5-min Rain = 0
KBWS 151705Z 33004KT 32/17 A3016 RMK A01 T03220167  RH  041%=      5-min Rain = 0
KBWS 151710Z 01004KT 32/17 A3016 RMK A01 T03210166  RH  041%=      5-min Rain = 0
KBWS 151715Z 01003KT 32/17 A3016 RMK A01 T03220166  RH  041%=      5-min Rain = 0
KBWS 151720Z 22007KT 33/16 A3016 RMK A01 T03340164  RH  038%=      5-min Rain = 0
KBWS 151725Z 21007KT 33/16 A3015 RMK A01 T03320162  RH  038%=      5-min Rain = 0
KBWS 151730Z 24004KT 33/16 A3015 RMK A01 T03290161  RH  038%=      5-min Rain = 0
KBWS 151735Z 23004KT 33/16 A3015 RMK A01 T03340158  RH  037%=      5-min Rain = 0
KBWS 151740Z 25004G9KT 33/16 A3014 RMK A01 T03330158  RH  037%=      5-min Rain = 0
KBWS 151745Z 23006KT 34/15 A3014 RMK A01 T03360152  RH  035%=      5-min Rain = 0
KBWS 151750Z 22007KT 34/16 A3014 RMK A01 T03380160  RH  036%=      5-min Rain = 0
KBWS 151755Z 22007KT 34/16 A3014 RMK A01 T03380161  RH  036%=      5-min Rain = 0
KBWS 151800Z 24005KT 34/16 A3014 RMK A01 T03420163  RH  036%=      5-min Rain = 0
KBWS 151805Z 17006KT 34/16 A3013 RMK A01 T03430160  RH  035%=      5-min Rain = 0
KBWS 151810Z 15007KT 34/16 A3013 RMK A01 T03400159  RH  036%=      5-min Rain = 0
KBWS 151815Z 14004G9KT 34/16 A3013 RMK A01 T03380157  RH  035%=      5-min Rain = 0
KBWS 151820Z 22005G11KT 34/16 A3013 RMK A01 T03430155  RH  034%=      5-min Rain = 0
KBWS 151825Z 23005G10KT 35/15 A3013 RMK A01 T03450151  RH  033%=      5-min Rain = 0
KBWS 151830Z 22008G14KT 34/15 A3012 RMK A01 T03430153  RH  034%=      5-min Rain = 0
KBWS 151835Z 22007G12KT 35/15 A3012 RMK A01 T03450153  RH  033%=      5-min Rain = 0
KBWS 151840Z 24005KT 35/15 A3012 RMK A01 T03490152  RH  032%=      5-min Rain = 0
KBWS 151845Z 23005KT 35/16 A3012 RMK A01 T03460155  RH  033%=      5-min Rain = 0
KBWS 151850Z 25003KT 35/16 A3012 RMK A01 T03470156  RH  034%=      5-min Rain = 0
KBWS 151855Z 19004G13KT 35/16 A3011 RMK A01 T03450155  RH  034%=      5-min Rain = 0
KBWS 151900Z 21007KT 35/15 A3011 RMK A01 T03520147  RH  031%=      5-min Rain = 0
KBWS 151905Z 25005KT 35/15 A3011 RMK A01 T03490146  RH  031%=      5-min Rain = 0
KBWS 151910Z 22004KT 34/14 A301 RMK A01 T03390143  RH  032%=      5-min Rain = 0
KBWS 151915Z 17004KT 34/14 A301 RMK A01 T03430142  RH  031%=      5-min Rain = 0
KBWS 151920Z 18003KT 34/15 A301 RMK A01 T03370145  RH  033%=      5-min Rain = 0
KBWS 151925Z 21005G14KT 34/15 A3009 RMK A01 T03410146  RH  032%=      5-min Rain = 0
KBWS 151930Z 21009G14KT 35/14 A3009 RMK A01 T03490144  RH  031%=      5-min Rain = 0
KBWS 151935Z 22011G16KT 35/14 A3008 RMK A01 T03530144  RH  030%=      5-min Rain = 0
KBWS 151940Z 22011KT 36/15 A3008 RMK A01 T03570149  RH  030%=      5-min Rain = 0
KBWS 151945Z 19011KT 35/16 A3008 RMK A01 T03530157  RH  033%=      5-min Rain = 0
KBWS 151950Z 18008G15KT 35/16 A3008 RMK A01 T03450155  RH  034%=      5-min Rain = 0
KBWS 151955Z 17009G15KT 35/15 A3007 RMK A01 T03480154  RH  033%=      5-min Rain = 0
KBWS 152000Z 16008KT 35/15 A3007 RMK A01 T03490152  RH  032%=      5-min Rain = 0
KBWS 152005Z 14004KT 35/15 A3007 RMK A01 T03480153  RH  033%=      5-min Rain = 0
KBWS 152010Z 16007G12KT 36/15 A3007 RMK A01 T03550149  RH  031%=      5-min Rain = 0
KBWS 152015Z 15008KT 35/15 A3007 RMK A01 T03530150  RH  031%=      5-min Rain = 0
KBWS 152020Z 11003KT 34/15 A3006 RMK A01 T03420150  RH  033%=      5-min Rain = 0
KBWS 152025Z 11003KT 35/15 A3006 RMK A01 T03460151  RH  033%=      5-min Rain = 0
KBWS 152030Z 24006KT 36/14 A3006 RMK A01 T03570144  RH  029%=      5-min Rain = 0
KBWS 152035Z 25006KT 36/14 A3006 RMK A01 T03570144  RH  029%=      5-min Rain = 0
KBWS 152040Z 25001KT 35/14 A3006 RMK A01 T03540144  RH  030%=      5-min Rain = 0
KBWS 152045Z 22006KT 36/15 A3006 RMK A01 T03570146  RH  030%=      5-min Rain = 0
KBWS 152050Z 19007G14KT 35/15 A3006 RMK A01 T03540148  RH  031%=      5-min Rain = 0
KBWS 152055Z 20020G31KT 34/15 A3007 RMK A01 T03400154  RH  035%=      5-min Rain = 0
KBWS 152100Z 20021G28KT 31/16 A3007 RMK A01 T03050159  RH  043%=      5-min Rain = 0
KBWS 152105Z 20022G27KT 30/16 A3007 RMK A01 T03040158  RH  043%=      5-min Rain = 0
KBWS 152110Z 20021G27KT 31/15 A3006 RMK A01 T03060154  RH  042%=      5-min Rain = 0
KBWS 152115Z 20024G30KT 31/16 A3006 RMK A01 T03050156  RH  042%=      5-min Rain = 0
KBWS 152120Z 20022G29KT 30/16 A3006 RMK A01 T02970160  RH  046%=      5-min Rain = 0
KBWS 152125Z 19019KT 30/16 A3006 RMK A01 T03010160  RH  045%=      5-min Rain = 0
KBWS 152130Z 18017KT 30/17 A3006 RMK A01 T02990166  RH  047%=      5-min Rain = 0
KBWS 152135Z 17013KT 29/17 A3006 RMK A01 T02920174  RH  051%=      5-min Rain = 0
KBWS 152140Z 19012KT 29/17 A3006 RMK A01 T02940174  RH  051%=      5-min Rain = 0
KBWS 152145Z 18012KT 30/17 A3005 RMK A01 T02970172  RH  050%=      5-min Rain = 0
KBWS 152150Z 18011KT 30/17 A3006 RMK A01 T03040172  RH  047%=      5-min Rain = 0
KBWS 152155Z 18011KT 31/17 A3006 RMK A01 T03080172  RH  046%=      5-min Rain = 0
KBWS 152200Z 18011KT 31/17 A3006 RMK A01 T03100165  RH  044%=      5-min Rain = 0
KBWS 152205Z 18011KT 31/16 A3006 RMK A01 T03100159  RH  042%=      5-min Rain = 0
KBWS 152210Z 17012KT 31/16 A3006 RMK A01 T03130156  RH  041%=      5-min Rain = 0
KBWS 152215Z 17011KT 31/16 A3006 RMK A01 T03120163  RH  043%=      5-min Rain = 0
KBWS 152220Z 17012KT 31/16 A3006 RMK A01 T03130157  RH  041%=      5-min Rain = 0
KBWS 152225Z 18013KT 32/16 A3005 RMK A01 T03160157  RH  040%=      5-min Rain = 0
KBWS 152230Z 18013KT 32/16 A3005 RMK A01 T03200156  RH  039%=      5-min Rain = 0
KBWS 152235Z 19015KT 33/15 A3004 RMK A01 T03250150  RH  036%=      5-min Rain = 0
KBWS 152240Z 19016KT 33/15 A3004 RMK A01 T03300152  RH  036%=      5-min Rain = 0
KBWS 152245Z 19013KT 33/15 A3004 RMK A01 T03260150  RH  036%=      5-min Rain = 0
KBWS 152250Z 19013KT 33/15 A3004 RMK A01 T03250153  RH  037%=      5-min Rain = 0
KBWS 152255Z 20013KT 32/15 A3004 RMK A01 T03190149  RH  037%=      5-min Rain = 0
KBWS 152300Z 20012KT 32/15 A3004 RMK A01 T03220151  RH  037%=      5-min Rain = 0
KBWS 152305Z 19013KT 33/15 A3003 RMK A01 T03270148  RH  036%=      5-min Rain = 0
KBWS 152310Z 20013KT 33/14 A3003 RMK A01 T03290141  RH  033%=      5-min Rain = 0
KBWS 152315Z 19014KT 33/14 A3002 RMK A01 T03270135  RH  033%=      5-min Rain = 0
KBWS 152320Z 20014KT 33/14 A3002 RMK A01 T03290136  RH  032%=      5-min Rain = 0
KBWS 152325Z 20014KT 33/14 A3002 RMK A01 T03300138  RH  033%=      5-min Rain = 0
KBWS 152330Z 20013KT 33/13 A3002 RMK A01 T03300133  RH  032%=      5-min Rain = 0
KBWS 152335Z 20014KT 33/13 A3002 RMK A01 T03290132  RH  032%=      5-min Rain = 0
KBWS 152340Z 21012KT 33/14 A3002 RMK A01 T03280140  RH  034%=      5-min Rain = 0
KBWS 152345Z 21012KT 33/15 A3002 RMK A01 T03270152  RH  036%=      5-min Rain = 0
KBWS 152350Z 21012KT 33/15 A3002 RMK A01 T03260154  RH  037%=      5-min Rain = 0
KBWS 152355Z 20012KT 33/15 A3002 RMK A01 T03300151  RH  036%=      5-min Rain = 0
KBWS 160000Z 20013KT 33/15 A3002 RMK A01 T03310148  RH  035%=      5-min Rain = 0
KBWS 160005Z 20012KT 33/14 A3002 RMK A01 T03260142  RH  034%=      5-min Rain = 0
KBWS 160010Z 20012KT 32/14 A3002 RMK A01 T03240138  RH  034%=      5-min Rain = 0
KBWS 160015Z 20011KT 33/14 A3001 RMK A01 T03260137  RH  033%=      5-min Rain = 0
KBWS 160020Z 20010KT 33/14 A3001 RMK A01 T03260136  RH  033%=      5-min Rain = 0
KBWS 160025Z 19009KT 33/14 A3001 RMK A01 T03250138  RH  033%=      5-min Rain = 0
KBWS 160030Z 19010KT 32/13 A3001 RMK A01 T03240134  RH  033%=      5-min Rain = 0
KBWS 160035Z 19009KT 32/13 A3001 RMK A01 T03240132  RH  032%=      5-min Rain = 0
KBWS 160040Z 20009KT 32/14 A3001 RMK A01 T03220135  RH  033%=      5-min Rain = 0
KBWS 160045Z 20009KT 32/14 A3001 RMK A01 T03210136  RH  034%=      5-min Rain = 0
KBWS 160050Z 20009KT 32/13 A3001 RMK A01 T03190133  RH  034%=      5-min Rain = 0
KBWS 160055Z 19007KT 32/13 A3001 RMK A01 T03180132  RH  034%=      5-min Rain = 0
KBWS 160100Z 17008KT 32/13 A3002 RMK A01 T03170131  RH  033%=      5-min Rain = 0
KBWS 160105Z 16007KT 31/14 A3002 RMK A01 T03140144  RH  037%=      5-min Rain = 0
KBWS 160110Z 16006KT 31/15 A3001 RMK A01 T03100147  RH  039%=      5-min Rain = 0
KBWS 160115Z 16005KT 31/15 A3001 RMK A01 T03080149  RH  040%=      5-min Rain = 0
KBWS 160120Z 18005KT 31/15 A3002 RMK A01 T03050146  RH  040%=      5-min Rain = 0
KBWS 160125Z 17005KT 30/14 A3002 RMK A01 T03040142  RH  039%=      5-min Rain = 0
KBWS 160130Z 17005KT 30/14 A3001 RMK A01 T03020141  RH  039%=      5-min Rain = 0
KBWS 160135Z 16005KT 30/14 A3001 RMK A01 T02980144  RH  041%=      5-min Rain = 0
KBWS 160140Z 17005KT 29/15 A3001 RMK A01 T02940146  RH  042%=      5-min Rain = 0
KBWS 160145Z 16006KT 29/15 A3001 RMK A01 T02900145  RH  043%=      5-min Rain = 0
KBWS 160150Z 17007KT 29/14 A3001 RMK A01 T02890137  RH  041%=      5-min Rain = 0
KBWS 160155Z 17007KT 29/13 A3001 RMK A01 T02880134  RH  040%=      5-min Rain = 0
KBWS 160200Z 18006KT 29/13 A3001 RMK A01 T02860132  RH  040%=      5-min Rain = 0
KBWS 160205Z 18007KT 29/13 A3002 RMK A01 T02850131  RH  040%=      5-min Rain = 0
KBWS 160210Z 17006KT 28/13 A3002 RMK A01 T02840133  RH  041%=      5-min Rain = 0
KBWS 160215Z 17007KT 28/13 A3002 RMK A01 T02820130  RH  041%=      5-min Rain = 0
KBWS 160220Z 17006KT 28/13 A3002 RMK A01 T02810130  RH  041%=      5-min Rain = 0
KBWS 160225Z 18005KT 28/13 A3002 RMK A01 T02780134  RH  043%=      5-min Rain = 0
KBWS 160230Z 18005KT 28/14 A3002 RMK A01 T02760135  RH  044%=      5-min Rain = 0
KBWS 160235Z 18006KT 27/14 A3003 RMK A01 T02740137  RH  045%=      5-min Rain = 0
KBWS 160240Z 17006KT 27/14 A3003 RMK A01 T02710140  RH  046%=      5-min Rain = 0
KBWS 160245Z 19006KT 27/14 A3003 RMK A01 T02680143  RH  048%=      5-min Rain = 0
KBWS 160250Z 19007KT 27/14 A3003 RMK A01 T02690141  RH  047%=      5-min Rain = 0
KBWS 160255Z 19007KT 27/13 A3003 RMK A01 T02720133  RH  044%=      5-min Rain = 0
KBWS 160300Z 19007KT 27/13 A3004 RMK A01 T02740126  RH  042%=      5-min Rain = 0
KBWS 160305Z 19007KT 28/12 A3004 RMK A01 T02750120  RH  040%=      5-min Rain = 0
KBWS 160310Z 18007KT 28/12 A3004 RMK A01 T02770116  RH  038%=      5-min Rain = 0
KBWS 160315Z 18007KT 28/12 A3004 RMK A01 T02760118  RH  039%=      5-min Rain = 0
KBWS 160320Z 17006KT 27/12 A3005 RMK A01 T02730119  RH  040%=      5-min Rain = 0
KBWS 160325Z 17006KT 27/12 A3005 RMK A01 T02690123  RH  042%=      5-min Rain = 0
KBWS 160330Z 17006KT 27/13 A3005 RMK A01 T02650128  RH  044%=      5-min Rain = 0
KBWS 160335Z 17007KT 26/13 A3005 RMK A01 T02640129  RH  045%=      5-min Rain = 0
KBWS 160340Z 17007KT 26/13 A3005 RMK A01 T02640127  RH  044%=      5-min Rain = 0
KBWS 160345Z 16008KT 26/13 A3005 RMK A01 T02640126  RH  044%=      5-min Rain = 0
KBWS 160350Z 17008KT 26/13 A3005 RMK A01 T02620126  RH  045%=      5-min Rain = 0
KBWS 160355Z 17008KT 26/13 A3005 RMK A01 T02610125  RH  045%=      5-min Rain = 0
KBWS 160400Z 17009KT 26/12 A3005 RMK A01 T02630122  RH  043%=      5-min Rain = 0
KBWS 160405Z 17011KT 27/12 A3005 RMK A01 T02660120  RH  042%=      5-min Rain = 0
KBWS 160410Z 17010KT 27/12 A3005 RMK A01 T02660121  RH  042%=      5-min Rain = 0
KBWS 160415Z 17009KT 26/13 A3005 RMK A01 T02620125  RH  044%=      5-min Rain = 0
KBWS 160420Z 17009KT 26/13 A3005 RMK A01 T02600125  RH  045%=      5-min Rain = 0
KBWS 160425Z 17009KT 26/12 A3006 RMK A01 T02590123  RH  044%=      5-min Rain = 0
KBWS 160430Z 17009KT 26/12 A3006 RMK A01 T02600122  RH  044%=      5-min Rain = 0
KBWS 160435Z 17009KT 26/12 A3006 RMK A01 T02580122  RH  045%=      5-min Rain = 0
KBWS 160440Z 17008KT 26/12 A3006 RMK A01 T02550124  RH  046%=      5-min Rain = 0
KBWS 160445Z 17008KT 25/13 A3006 RMK A01 T02510125  RH  047%=      5-min Rain = 0
KBWS 160450Z 17008KT 25/13 A3006 RMK A01 T02490126  RH  048%=      5-min Rain = 0
KBWS 160455Z 17007KT 25/13 A3006 RMK A01 T02470126  RH  049%=      5-min Rain = 0

Page generated in 0.0149 seconds.